createdAt,value
2017-05-09T00:00:00.032Z,0
2017-05-09T00:01:44.858Z,0
2017-05-09T00:02:45.468Z,0
2017-05-09T00:03:46.079Z,0
2017-05-09T00:04:46.669Z,0
2017-05-09T00:05:47.265Z,0
2017-05-09T00:06:47.922Z,0
2017-05-09T00:07:48.527Z,0
2017-05-09T00:08:49.136Z,0
2017-05-09T00:09:49.732Z,0
2017-05-09T00:10:50.346Z,0
2017-05-09T00:11:50.951Z,0
2017-05-09T00:12:51.558Z,0
2017-05-09T00:13:52.146Z,0
2017-05-09T00:14:52.753Z,0
2017-05-09T00:15:53.356Z,0
2017-05-09T00:16:53.963Z,0
2017-05-09T00:17:54.617Z,0
2017-05-09T00:18:55.163Z,0
2017-05-09T00:19:55.768Z,0
2017-05-09T00:20:56.373Z,0
2017-05-09T00:21:56.966Z,0
2017-05-09T00:22:57.564Z,0
2017-05-09T00:23:58.172Z,0
2017-05-09T00:24:58.778Z,0
2017-05-09T00:25:59.380Z,0
2017-05-09T00:26:59.985Z,0
2017-05-09T00:28:00.578Z,0
2017-05-09T00:29:01.168Z,0
2017-05-09T00:30:01.765Z,0
2017-05-09T00:31:02.364Z,0
2017-05-09T00:32:02.961Z,0
2017-05-09T00:33:03.560Z,0
2017-05-09T00:34:04.164Z,0
2017-05-09T00:35:04.758Z,0
2017-05-09T00:36:05.367Z,0
2017-05-09T00:37:05.975Z,0
2017-05-09T00:38:06.578Z,0
2017-05-09T00:39:07.172Z,0
2017-05-09T00:40:07.778Z,0
2017-05-09T00:41:08.370Z,0
2017-05-09T00:42:08.962Z,0
2017-05-09T00:43:09.568Z,0
2017-05-09T00:44:10.161Z,0
2017-05-09T00:45:10.769Z,0
2017-05-09T00:46:11.364Z,0
2017-05-09T00:47:11.961Z,0
2017-05-09T00:48:12.566Z,0
2017-05-09T00:49:13.172Z,0
2017-05-09T00:50:13.773Z,0
2017-05-09T00:51:14.370Z,0
2017-05-09T00:52:14.969Z,0
2017-05-09T00:53:15.576Z,0
2017-05-09T00:54:16.169Z,0
2017-05-09T00:55:16.767Z,0
2017-05-09T00:56:17.374Z,0
2017-05-09T00:57:17.985Z,0
2017-05-09T00:58:18.593Z,0
2017-05-09T00:59:19.198Z,0
2017-05-09T01:00:19.789Z,0
2017-05-09T01:01:20.381Z,0
2017-05-09T01:02:20.988Z,0
2017-05-09T01:03:21.593Z,0
2017-05-09T01:04:22.201Z,0
2017-05-09T01:05:22.807Z,0
2017-05-09T01:06:23.401Z,0
2017-05-09T01:07:24.042Z,0
2017-05-09T01:08:24.648Z,0
2017-05-09T01:09:25.251Z,0
2017-05-09T01:10:25.841Z,0
2017-05-09T01:11:26.443Z,0
2017-05-09T01:12:27.084Z,0
2017-05-09T01:13:27.688Z,0
2017-05-09T01:14:28.294Z,0
2017-05-09T01:15:28.904Z,0
2017-05-09T01:16:29.513Z,0
2017-05-09T01:17:30.169Z,0
2017-05-09T01:18:30.766Z,0
2017-05-09T01:19:31.356Z,0
2017-05-09T01:20:31.958Z,0
2017-05-09T01:21:32.551Z,0
2017-05-09T01:22:33.205Z,0
2017-05-09T01:23:33.798Z,0
2017-05-09T01:24:34.394Z,0
2017-05-09T01:25:34.983Z,0
2017-05-09T01:26:35.577Z,0
2017-05-09T01:27:36.171Z,0
2017-05-09T01:28:36.772Z,0
2017-05-09T01:29:37.364Z,0
2017-05-09T01:30:37.972Z,0
2017-05-09T01:31:38.566Z,0
2017-05-09T01:32:39.232Z,0
2017-05-09T01:33:39.830Z,0
2017-05-09T01:34:40.437Z,0
2017-05-09T01:35:41.039Z,0
2017-05-09T01:36:41.649Z,0
2017-05-09T01:37:42.247Z,0
2017-05-09T01:38:42.857Z,0
2017-05-09T01:39:43.466Z,0
2017-05-09T01:40:44.072Z,0
2017-05-09T01:41:44.678Z,0
2017-05-09T01:42:45.318Z,0
2017-05-09T01:43:45.913Z,0
2017-05-09T01:44:46.502Z,0
2017-05-09T01:45:47.098Z,0
2017-05-09T01:46:47.703Z,0
2017-05-09T01:47:48.310Z,0
2017-05-09T01:48:48.919Z,0
2017-05-09T01:49:49.522Z,0
2017-05-09T01:50:50.122Z,0
2017-05-09T01:51:50.718Z,0
2017-05-09T01:52:51.373Z,0
2017-05-09T01:53:51.983Z,0
2017-05-09T01:54:52.592Z,0
2017-05-09T01:55:53.194Z,0
2017-05-09T01:56:53.788Z,0
2017-05-09T01:57:54.380Z,0
2017-05-09T01:58:54.986Z,0
2017-05-09T01:59:55.587Z,0
2017-05-09T02:00:56.191Z,0
2017-05-09T02:01:56.795Z,0
2017-05-09T02:02:57.389Z,0
2017-05-09T02:03:57.997Z,0
2017-05-09T02:04:58.589Z,0
2017-05-09T02:05:59.192Z,0
2017-05-09T02:06:59.794Z,0
2017-05-09T02:08:00.399Z,0
2017-05-09T02:09:01.071Z,0
2017-05-09T02:10:01.596Z,0
2017-05-09T02:11:02.192Z,0
2017-05-09T02:12:02.800Z,0
2017-05-09T02:13:03.457Z,0
2017-05-09T02:14:04.062Z,0
2017-05-09T02:15:04.668Z,0
2017-05-09T02:16:05.256Z,0
2017-05-09T02:17:05.847Z,0
2017-05-09T02:18:06.454Z,0
2017-05-09T02:19:07.059Z,0
2017-05-09T02:20:07.650Z,0
2017-05-09T02:21:08.242Z,0
2017-05-09T02:22:08.836Z,0
2017-05-09T02:23:09.437Z,0
2017-05-09T02:24:10.042Z,0
2017-05-09T02:25:10.643Z,0
2017-05-09T02:26:11.238Z,0
2017-05-09T02:27:11.832Z,0
2017-05-09T02:28:12.422Z,0
2017-05-09T02:29:13.031Z,0
2017-05-09T02:30:13.642Z,0
2017-05-09T02:31:14.231Z,0
2017-05-09T02:32:14.834Z,0
2017-05-09T02:33:15.426Z,0
2017-05-09T02:34:16.031Z,0
2017-05-09T02:35:16.637Z,0
2017-05-09T02:36:17.229Z,0
2017-05-09T02:37:17.821Z,0
2017-05-09T02:38:18.429Z,0
2017-05-09T02:39:19.022Z,0
2017-05-09T02:40:19.620Z,0
2017-05-09T02:41:20.212Z,0
2017-05-09T02:42:20.808Z,0
2017-05-09T02:43:21.411Z,0
2017-05-09T02:44:22.018Z,0
2017-05-09T02:45:22.622Z,0
2017-05-09T02:46:23.216Z,0
2017-05-09T02:47:23.810Z,0
2017-05-09T02:48:24.419Z,0
2017-05-09T02:49:25.007Z,0
2017-05-09T02:50:25.610Z,0
2017-05-09T02:51:26.212Z,0
2017-05-09T02:52:26.802Z,0
2017-05-09T02:53:27.399Z,0
2017-05-09T02:54:28.007Z,0
2017-05-09T02:55:28.612Z,0
2017-05-09T02:56:29.204Z,0
2017-05-09T02:57:29.809Z,0
2017-05-09T02:58:30.412Z,0
2017-05-09T02:59:31.005Z,0
2017-05-09T03:00:31.614Z,0
2017-05-09T03:01:32.200Z,0
2017-05-09T03:02:32.789Z,0
2017-05-09T03:03:33.483Z,0
2017-05-09T03:04:34.082Z,0
2017-05-09T03:05:34.688Z,0
2017-05-09T03:06:35.297Z,0
2017-05-09T03:07:35.903Z,0
2017-05-09T03:08:36.496Z,0
2017-05-09T03:09:37.105Z,0
2017-05-09T03:10:37.704Z,0
2017-05-09T03:11:38.295Z,0
2017-05-09T03:12:38.903Z,0
2017-05-09T03:13:39.561Z,0
2017-05-09T03:14:40.157Z,4
2017-05-09T03:15:40.749Z,4
2017-05-09T03:16:41.342Z,4
2017-05-09T03:17:41.934Z,0
2017-05-09T03:18:42.584Z,4
2017-05-09T03:19:43.188Z,4
2017-05-09T03:20:43.795Z,4
2017-05-09T03:21:44.395Z,4
2017-05-09T03:22:45.007Z,8
2017-05-09T03:23:45.651Z,8
2017-05-09T03:24:46.258Z,12
2017-05-09T03:25:46.851Z,12
2017-05-09T03:26:47.457Z,12
2017-05-09T03:27:48.052Z,16
2017-05-09T03:28:48.702Z,20
2017-05-09T03:29:49.305Z,24
2017-05-09T03:30:49.905Z,24
2017-05-09T03:31:50.511Z,28
2017-05-09T03:32:51.107Z,32
2017-05-09T03:33:51.713Z,40
2017-05-09T03:34:52.314Z,44
2017-05-09T03:35:52.917Z,48
2017-05-09T03:36:53.521Z,60
2017-05-09T03:37:54.113Z,64
2017-05-09T03:38:54.721Z,76
2017-05-09T03:39:55.325Z,84
2017-05-09T03:40:55.920Z,96
2017-05-09T03:41:56.511Z,108
2017-05-09T03:42:57.119Z,120
2017-05-09T03:43:57.728Z,140
2017-05-09T03:44:58.336Z,152
2017-05-09T03:45:58.930Z,172
2017-05-09T03:46:59.532Z,192
2017-05-09T03:48:00.127Z,216
2017-05-09T03:49:00.727Z,240
2017-05-09T03:50:01.322Z,268
2017-05-09T03:51:01.916Z,292
2017-05-09T03:52:02.531Z,324
2017-05-09T03:53:03.134Z,356
2017-05-09T03:54:03.795Z,392
2017-05-09T03:55:04.392Z,432
2017-05-09T03:56:04.990Z,472
2017-05-09T03:57:05.580Z,512
2017-05-09T03:58:06.172Z,556
2017-05-09T03:59:06.769Z,604
2017-05-09T04:00:07.364Z,652
2017-05-09T04:01:07.958Z,700
2017-05-09T04:02:08.551Z,752
2017-05-09T04:03:09.156Z,812
2017-05-09T04:04:09.815Z,868
2017-05-09T04:05:10.412Z,928
2017-05-09T04:06:11.022Z,1000
2017-05-09T04:07:11.626Z,1072
2017-05-09T04:08:12.223Z,1148
2017-05-09T04:09:12.840Z,1224
2017-05-09T04:10:13.439Z,1308
2017-05-09T04:11:14.036Z,1384
2017-05-09T04:12:14.643Z,1452
2017-05-09T04:13:15.238Z,1528
2017-05-09T04:14:15.889Z,1600
2017-05-09T04:15:16.505Z,1668
2017-05-09T04:16:17.108Z,1748
2017-05-09T04:17:17.706Z,1820
2017-05-09T04:18:18.316Z,1888
2017-05-09T04:19:18.963Z,1948
2017-05-09T04:20:19.600Z,2008
2017-05-09T04:21:20.176Z,2072
2017-05-09T04:22:20.770Z,2148
2017-05-09T04:23:21.372Z,2224
2017-05-09T04:24:22.029Z,2308
2017-05-09T04:25:22.641Z,2388
2017-05-09T04:26:23.246Z,2456
2017-05-09T04:27:23.834Z,2500
2017-05-09T04:28:24.441Z,2412
2017-05-09T04:29:25.096Z,2372
2017-05-09T04:30:25.707Z,2560
2017-05-09T04:31:26.299Z,3012
2017-05-09T04:32:26.905Z,3376
2017-05-09T04:33:27.510Z,3524
2017-05-09T04:34:28.169Z,3636
2017-05-09T04:35:28.766Z,3780
2017-05-09T04:36:29.376Z,3912
2017-05-09T04:37:29.989Z,4032
2017-05-09T04:38:30.604Z,4076
2017-05-09T04:39:31.218Z,3868
2017-05-09T04:40:31.824Z,3840
2017-05-09T04:41:32.427Z,4088
2017-05-09T04:42:33.039Z,4608
2017-05-09T04:43:33.641Z,4800
2017-05-09T04:44:34.254Z,5004
2017-05-09T04:45:34.855Z,5040
2017-05-09T04:46:35.460Z,5140
2017-05-09T04:47:36.077Z,5284
2017-05-09T04:48:36.693Z,5348
2017-05-09T04:49:37.342Z,5516
2017-05-09T04:50:37.960Z,5776
2017-05-09T04:51:38.561Z,5940
2017-05-09T04:52:39.175Z,5992
2017-05-09T04:53:39.819Z,6072
2017-05-09T04:54:40.417Z,6188
2017-05-09T04:55:41.041Z,6164
2017-05-09T04:56:41.647Z,5384
2017-05-09T04:57:42.248Z,5256
2017-05-09T04:58:42.860Z,6300
2017-05-09T04:59:43.524Z,7196
2017-05-09T05:00:44.162Z,7244
2017-05-09T05:01:44.738Z,7468
2017-05-09T05:02:45.343Z,7696
2017-05-09T05:03:45.961Z,7628
2017-05-09T05:04:46.639Z,7780
2017-05-09T05:05:47.261Z,8200
2017-05-09T05:06:47.909Z,8420
2017-05-09T05:07:48.505Z,8416
2017-05-09T05:08:49.135Z,8688
2017-05-09T05:09:49.815Z,9168
2017-05-09T05:10:50.438Z,9284
2017-05-09T05:11:51.058Z,8484
2017-05-09T05:12:51.690Z,8864
2017-05-09T05:13:52.327Z,10152
2017-05-09T05:14:52.995Z,10480
2017-05-09T05:15:53.622Z,10700
2017-05-09T05:16:54.234Z,11008
2017-05-09T05:17:54.864Z,11372
2017-05-09T05:18:55.499Z,11776
2017-05-09T05:19:56.179Z,11900
2017-05-09T05:20:56.787Z,11840
2017-05-09T05:21:57.407Z,11760
2017-05-09T05:22:58.036Z,9888
2017-05-09T05:23:58.658Z,7548
2017-05-09T05:24:59.378Z,6740
2017-05-09T05:25:59.988Z,6736
2017-05-09T05:27:00.614Z,6820
2017-05-09T05:28:01.226Z,6908
2017-05-09T05:29:01.841Z,7588
2017-05-09T05:30:02.460Z,9844
2017-05-09T05:31:03.074Z,11768
2017-05-09T05:32:03.688Z,12840
2017-05-09T05:33:04.306Z,13576
2017-05-09T05:34:04.927Z,14084
2017-05-09T05:35:05.601Z,14904
2017-05-09T05:36:06.224Z,16212
2017-05-09T05:37:06.852Z,16444
2017-05-09T05:38:07.478Z,15340
2017-05-09T05:39:08.109Z,11796
2017-05-09T05:40:08.782Z,8464
2017-05-09T05:41:09.474Z,9308
2017-05-09T05:42:10.077Z,12888
2017-05-09T05:43:10.700Z,15648
2017-05-09T05:44:11.327Z,16352
2017-05-09T05:45:11.957Z,17248
2017-05-09T05:46:12.567Z,18016
2017-05-09T05:47:13.196Z,18464
2017-05-09T05:48:13.808Z,18752
2017-05-09T05:49:14.435Z,18880
2017-05-09T05:50:15.057Z,19104
2017-05-09T05:51:15.678Z,18336
2017-05-09T05:52:16.299Z,17760
2017-05-09T05:53:16.911Z,18368
2017-05-09T05:54:17.537Z,17792
2017-05-09T05:55:18.197Z,14124
2017-05-09T05:56:18.817Z,12088
2017-05-09T05:57:19.436Z,16864
2017-05-09T05:58:20.052Z,20256
2017-05-09T05:59:20.689Z,19680
2017-05-09T06:00:21.297Z,18816
2017-05-09T06:01:21.919Z,19456
2017-05-09T06:02:22.536Z,22624
2017-05-09T06:03:23.161Z,24192
2017-05-09T06:04:23.784Z,24352
2017-05-09T06:05:24.461Z,24992
2017-05-09T06:06:25.089Z,25056
2017-05-09T06:07:25.702Z,25344
2017-05-09T06:08:26.328Z,25888
2017-05-09T06:09:26.953Z,26560
2017-05-09T06:10:27.570Z,27104
2017-05-09T06:11:28.182Z,27456
2017-05-09T06:12:28.809Z,28224
2017-05-09T06:13:29.437Z,29600
2017-05-09T06:14:30.066Z,31168
2017-05-09T06:15:30.748Z,31296
2017-05-09T06:16:31.388Z,31168
2017-05-09T06:17:32.016Z,30336
2017-05-09T06:18:32.646Z,29408
2017-05-09T06:19:33.278Z,29216
2017-05-09T06:20:34.143Z,30272
2017-05-09T06:21:34.775Z,32576
2017-05-09T06:22:35.417Z,34464
2017-05-09T06:23:36.052Z,34912
2017-05-09T06:24:36.687Z,34368
2017-05-09T06:25:37.329Z,34304
2017-05-09T06:26:37.955Z,35136
2017-05-09T06:27:38.575Z,35488
2017-05-09T06:28:39.194Z,34752
2017-05-09T06:29:39.820Z,34976
2017-05-09T06:30:40.489Z,35200
2017-05-09T06:31:41.117Z,34784
2017-05-09T06:32:41.741Z,34176
2017-05-09T06:33:42.373Z,34112
2017-05-09T06:34:42.992Z,34048
2017-05-09T06:35:43.691Z,30784
2017-05-09T06:36:44.337Z,34112
2017-05-09T06:37:44.966Z,39552
2017-05-09T06:38:45.600Z,36896
2017-05-09T06:39:46.223Z,35232
2017-05-09T06:40:46.904Z,40576
2017-05-09T06:41:47.538Z,40800
2017-05-09T06:42:48.167Z,40320
2017-05-09T06:43:48.794Z,39712
2017-05-09T06:44:49.424Z,39072
2017-05-09T06:45:50.063Z,38784
2017-05-09T06:46:50.701Z,32992
2017-05-09T06:47:51.330Z,37184
2017-05-09T06:48:51.960Z,39104
2017-05-09T06:49:52.593Z,41440
2017-05-09T06:50:53.224Z,42272
2017-05-09T06:51:53.843Z,42368
2017-05-09T06:52:54.479Z,43424
2017-05-09T06:53:55.097Z,44768
2017-05-09T06:54:55.730Z,45184
2017-05-09T06:55:56.417Z,44736
2017-05-09T06:56:57.045Z,36480
2017-05-09T06:57:57.665Z,33120
2017-05-09T06:58:58.296Z,32832
2017-05-09T06:59:58.928Z,35200
2017-05-09T07:00:59.608Z,42720
2017-05-09T07:02:00.239Z,46912
2017-05-09T07:03:00.873Z,47744
2017-05-09T07:04:01.488Z,47424
2017-05-09T07:05:02.119Z,46656
2017-05-09T07:06:02.751Z,46880
2017-05-09T07:07:03.382Z,48576
2017-05-09T07:08:04.008Z,51808
2017-05-09T07:09:04.639Z,55328
2017-05-09T07:10:05.271Z,57504
2017-05-09T07:11:05.956Z,58464
2017-05-09T07:12:06.587Z,56128
2017-05-09T07:13:07.207Z,52448
2017-05-09T07:14:07.827Z,48160
2017-05-09T07:15:08.458Z,45600
2017-05-09T07:16:09.097Z,44992
2017-05-09T07:17:09.727Z,46112
2017-05-09T07:18:10.363Z,46016
2017-05-09T07:19:10.984Z,45216
2017-05-09T07:20:11.624Z,44768
2017-05-09T07:21:12.336Z,44064
2017-05-09T07:22:12.977Z,43200
2017-05-09T07:23:13.640Z,43936
2017-05-09T07:24:14.288Z,45312
2017-05-09T07:25:14.968Z,47040
2017-05-09T07:26:15.648Z,48928
2017-05-09T07:27:16.279Z,50464
2017-05-09T07:28:16.912Z,51936
2017-05-09T07:29:17.532Z,54016
2017-05-09T07:30:18.158Z,55008
2017-05-09T07:31:18.777Z,55136
2017-05-09T07:32:19.404Z,54432
2017-05-09T07:33:20.037Z,53248
2017-05-09T07:34:20.683Z,52640
2017-05-09T07:35:21.339Z,53728
2017-05-09T07:36:21.984Z,55616
2017-05-09T07:37:22.616Z,57888
2017-05-09T07:38:23.241Z,58688
2017-05-09T07:39:23.890Z,59296
2017-05-09T07:40:24.520Z,59872
2017-05-09T07:41:25.149Z,60864
2017-05-09T07:42:25.782Z,65248
2017-05-09T07:43:26.404Z,70656
2017-05-09T07:44:27.034Z,75488
2017-05-09T07:45:27.662Z,76128
2017-05-09T07:46:28.349Z,72928
2017-05-09T07:47:28.979Z,69824
2017-05-09T07:48:29.610Z,68704
2017-05-09T07:49:30.234Z,69312
2017-05-09T07:50:30.865Z,71040
2017-05-09T07:51:31.542Z,71648
2017-05-09T07:52:32.172Z,70752
2017-05-09T07:53:32.789Z,70016
2017-05-09T07:54:33.419Z,69440
2017-05-09T07:55:34.052Z,70624
2017-05-09T07:56:34.681Z,72000
2017-05-09T07:57:35.304Z,71936
2017-05-09T07:58:35.934Z,70656
2017-05-09T07:59:36.561Z,68544
2017-05-09T08:00:37.180Z,66656
2017-05-09T08:01:37.810Z,67136
2017-05-09T08:02:38.445Z,69632
2017-05-09T08:03:39.079Z,73760
2017-05-09T08:04:39.717Z,75648
2017-05-09T08:05:40.336Z,76288
2017-05-09T08:06:40.967Z,73536
2017-05-09T08:07:41.598Z,71584
2017-05-09T08:08:42.230Z,71616
2017-05-09T08:09:42.848Z,72928
2017-05-09T08:10:43.475Z,76000
2017-05-09T08:11:44.110Z,77056
2017-05-09T08:12:44.737Z,75936
2017-05-09T08:13:45.366Z,73856
2017-05-09T08:14:45.993Z,73536
2017-05-09T08:15:46.616Z,74560
2017-05-09T08:16:47.235Z,78496
2017-05-09T08:17:47.864Z,80608
2017-05-09T08:18:48.494Z,81984
2017-05-09T08:19:49.118Z,81792
2017-05-09T08:20:49.750Z,81408
2017-05-09T08:21:50.373Z,82848
2017-05-09T08:22:51.007Z,83712
2017-05-09T08:23:51.624Z,85856
2017-05-09T08:24:52.251Z,86464
2017-05-09T08:25:52.875Z,84224
2017-05-09T08:26:53.552Z,82784
2017-05-09T08:27:54.180Z,82208
2017-05-09T08:28:54.801Z,84128
2017-05-09T08:29:55.432Z,88128
2017-05-09T08:30:56.050Z,93120
2017-05-09T08:31:56.721Z,92480
2017-05-09T08:32:57.351Z,90144
2017-05-09T08:33:57.973Z,88192
2017-05-09T08:34:58.606Z,88576
2017-05-09T08:35:59.226Z,89280
2017-05-09T08:36:59.843Z,91968
2017-05-09T08:38:00.462Z,92832
2017-05-09T08:39:01.082Z,91808
2017-05-09T08:40:01.701Z,90112
2017-05-09T08:41:02.318Z,91072
2017-05-09T08:42:02.939Z,91040
2017-05-09T08:43:03.570Z,89920
2017-05-09T08:44:04.198Z,85824
2017-05-09T08:45:04.834Z,81312
2017-05-09T08:46:05.461Z,79392
2017-05-09T08:47:06.143Z,79008
2017-05-09T08:48:06.777Z,80096
2017-05-09T08:49:07.415Z,82016
2017-05-09T08:50:08.030Z,82304
2017-05-09T08:51:08.647Z,82432
2017-05-09T08:52:09.322Z,83264
2017-05-09T08:53:09.950Z,84448
2017-05-09T08:54:10.577Z,88192
2017-05-09T08:55:11.199Z,93184
2017-05-09T08:56:11.834Z,92384
2017-05-09T08:57:12.513Z,76576
2017-05-09T08:58:13.140Z,23264
2017-05-09T08:59:13.753Z,23936
2017-05-09T09:00:14.370Z,55360
2017-05-09T09:01:15.000Z,95936
2017-05-09T09:02:15.717Z,95328
2017-05-09T09:03:16.345Z,93632
2017-05-09T09:04:16.965Z,93440
2017-05-09T09:05:17.587Z,92928
2017-05-09T09:06:18.219Z,93888
2017-05-09T09:07:18.934Z,97248
2017-05-09T09:08:19.534Z,98880
2017-05-09T09:09:20.149Z,100256
2017-05-09T09:10:20.771Z,99104
2017-05-09T09:11:21.398Z,96864
2017-05-09T09:12:22.031Z,98656
2017-05-09T09:13:22.667Z,99840
2017-05-09T09:14:23.297Z,103584
2017-05-09T09:15:23.917Z,100512
2017-05-09T09:16:24.536Z,96864
2017-05-09T09:17:25.215Z,100064
2017-05-09T09:18:25.848Z,101408
2017-05-09T09:19:26.479Z,103872
2017-05-09T09:20:27.102Z,108000
2017-05-09T09:21:27.737Z,101088
2017-05-09T09:22:28.401Z,91200
2017-05-09T09:23:29.023Z,101760
2017-05-09T09:24:29.654Z,100416
2017-05-09T09:25:30.286Z,96768
2017-05-09T09:26:30.916Z,95488
2017-05-09T09:27:31.543Z,97472
2017-05-09T09:28:32.169Z,100320
2017-05-09T09:29:32.792Z,100800
2017-05-09T09:30:33.427Z,97856
2017-05-09T09:31:34.043Z,93216
2017-05-09T09:32:34.680Z,89824
2017-05-09T09:33:35.310Z,92256
2017-05-09T09:34:35.936Z,94624
2017-05-09T09:35:36.566Z,95776
2017-05-09T09:36:37.195Z,97280
2017-05-09T09:37:37.820Z,96960
2017-05-09T09:38:38.442Z,95648
2017-05-09T09:39:39.064Z,96960
2017-05-09T09:40:39.682Z,97184
2017-05-09T09:41:40.307Z,96416
2017-05-09T09:42:40.926Z,97120
2017-05-09T09:43:41.554Z,99712
2017-05-09T09:44:42.184Z,102592
2017-05-09T09:45:42.804Z,105760
2017-05-09T09:46:43.435Z,108096
2017-05-09T09:47:44.156Z,106432
2017-05-09T09:48:44.793Z,104256
2017-05-09T09:49:45.410Z,101408
2017-05-09T09:50:46.261Z,101600
2017-05-09T09:51:46.877Z,102528
2017-05-09T09:52:47.556Z,102304
2017-05-09T09:53:48.171Z,102240
2017-05-09T09:54:48.800Z,101120
2017-05-09T09:55:49.420Z,98496
2017-05-09T09:56:50.049Z,97248
2017-05-09T09:57:50.727Z,96896
2017-05-09T09:58:51.354Z,98432
2017-05-09T09:59:51.980Z,103552
2017-05-09T10:00:52.596Z,106208
2017-05-09T10:01:53.224Z,105120
2017-05-09T10:02:53.851Z,104448
2017-05-09T10:03:54.470Z,103616
2017-05-09T10:04:55.104Z,105600
2017-05-09T10:05:55.734Z,108352
2017-05-09T10:06:56.354Z,111744
2017-05-09T10:07:56.984Z,112512
2017-05-09T10:08:57.611Z,114208
2017-05-09T10:09:58.228Z,114496
2017-05-09T10:10:58.861Z,116384
2017-05-09T10:11:59.605Z,118240
2017-05-09T10:13:00.283Z,119968
2017-05-09T10:14:00.915Z,120608
2017-05-09T10:15:01.535Z,123168
2017-05-09T10:16:02.164Z,124384
2017-05-09T10:17:02.792Z,124416
2017-05-09T10:18:03.415Z,123616
2017-05-09T10:19:04.032Z,119648
2017-05-09T10:20:04.661Z,118080
2017-05-09T10:21:05.279Z,115616
2017-05-09T10:22:05.914Z,120800
2017-05-09T10:23:06.542Z,125088
2017-05-09T10:24:07.166Z,126880
2017-05-09T10:25:07.786Z,123264
2017-05-09T10:26:08.412Z,121536
2017-05-09T10:27:09.040Z,119072
2017-05-09T10:28:09.667Z,118944
2017-05-09T10:29:10.285Z,123200
2017-05-09T10:30:10.913Z,129120
2017-05-09T10:31:11.544Z,131200
2017-05-09T10:32:12.169Z,132992
2017-05-09T10:33:12.840Z,134560
2017-05-09T10:34:13.458Z,127744
2017-05-09T10:35:14.080Z,122144
2017-05-09T10:36:14.700Z,129376
2017-05-09T10:37:15.330Z,64672
2017-05-09T10:38:16.012Z,110496
2017-05-09T10:39:16.639Z,131424
2017-05-09T10:40:17.268Z,125888
2017-05-09T10:41:18.097Z,43552
2017-05-09T10:42:18.731Z,128896
2017-05-09T10:43:19.414Z,126144
2017-05-09T10:44:20.047Z,126784
2017-05-09T10:45:20.669Z,108416
2017-05-09T10:46:21.297Z,134432
2017-05-09T10:47:21.925Z,132704
2017-05-09T10:48:22.544Z,131296
2017-05-09T10:49:23.179Z,132320
2017-05-09T10:50:23.812Z,128800
2017-05-09T10:51:24.445Z,135168
2017-05-09T10:52:25.076Z,125056
2017-05-09T10:53:25.754Z,39680
2017-05-09T10:54:26.384Z,27392
2017-05-09T10:55:27.003Z,25888
2017-05-09T10:56:27.630Z,26368
2017-05-09T10:57:28.263Z,27040
2017-05-09T10:58:28.935Z,28480
2017-05-09T10:59:29.554Z,137088
2017-05-09T11:00:30.189Z,134784
2017-05-09T11:01:30.813Z,127776
2017-05-09T11:02:31.442Z,32896
2017-05-09T11:03:32.137Z,29728
2017-05-09T11:04:32.790Z,27776
2017-05-09T11:05:33.404Z,85312
2017-05-09T11:06:34.022Z,124160
2017-05-09T11:07:34.652Z,115840
2017-05-09T11:08:35.289Z,124096
2017-05-09T11:09:35.926Z,125856
2017-05-09T11:10:36.555Z,130112
2017-05-09T11:11:37.182Z,132320
2017-05-09T11:12:37.805Z,125632
2017-05-09T11:13:38.478Z,120800
2017-05-09T11:14:39.106Z,120032
2017-05-09T11:15:39.758Z,121056
2017-05-09T11:16:40.376Z,122304
2017-05-09T11:17:41.007Z,124896
2017-05-09T11:18:41.735Z,127200
2017-05-09T11:19:42.363Z,124864
2017-05-09T11:20:42.986Z,105472
2017-05-09T11:21:43.608Z,22656
2017-05-09T11:22:44.239Z,21088
2017-05-09T11:23:44.858Z,20992
2017-05-09T11:24:45.486Z,21312
2017-05-09T11:25:46.114Z,20372
2017-05-09T11:26:46.745Z,20508
2017-05-09T11:27:47.367Z,21888
2017-05-09T11:28:47.994Z,27232
2017-05-09T11:29:48.619Z,124704
2017-05-09T11:30:49.247Z,116768
2017-05-09T11:31:49.875Z,111456
2017-05-09T11:32:50.506Z,113280
2017-05-09T11:33:51.171Z,116704
2017-05-09T11:34:51.800Z,116032
2017-05-09T11:35:52.436Z,120544
2017-05-09T11:36:53.047Z,134848
2017-05-09T11:37:53.667Z,137664
2017-05-09T11:38:54.296Z,127584
2017-05-09T11:39:54.915Z,130592
2017-05-09T11:40:55.547Z,133088
2017-05-09T11:41:56.177Z,136672
2017-05-09T11:42:57.028Z,125760
2017-05-09T11:43:57.701Z,40800
2017-05-09T11:44:58.324Z,47904
2017-05-09T11:45:58.946Z,130784
2017-05-09T11:46:59.572Z,47040
2017-05-09T11:48:00.186Z,44512
2017-05-09T11:49:00.859Z,45824
2017-05-09T11:50:01.482Z,51488
2017-05-09T11:51:02.097Z,49856
2017-05-09T11:52:02.711Z,45312
2017-05-09T11:53:03.333Z,43136
2017-05-09T11:54:03.998Z,41344
2017-05-09T11:55:04.618Z,47744
2017-05-09T11:56:05.233Z,41504
2017-05-09T11:57:05.860Z,39040
2017-05-09T11:58:06.490Z,33440
2017-05-09T11:59:07.116Z,122688
2017-05-09T12:00:07.739Z,114784
2017-05-09T12:01:08.362Z,119808
2017-05-09T12:02:08.978Z,121312
2017-05-09T12:03:09.589Z,126688
2017-05-09T12:04:10.267Z,127840
2017-05-09T12:05:10.898Z,128736
2017-05-09T12:06:11.524Z,128000
2017-05-09T12:07:12.148Z,126624
2017-05-09T12:08:12.765Z,130144
2017-05-09T12:09:13.446Z,131680
2017-05-09T12:10:14.079Z,137216
2017-05-09T12:11:14.706Z,60000
2017-05-09T12:12:15.335Z,59104
2017-05-09T12:13:15.964Z,81696
2017-05-09T12:14:16.635Z,129760
2017-05-09T12:15:17.268Z,122464
2017-05-09T12:16:17.906Z,121152
2017-05-09T12:17:18.534Z,120640
2017-05-09T12:18:19.163Z,82752
2017-05-09T12:19:19.791Z,46912
2017-05-09T12:20:20.428Z,109440
2017-05-09T12:21:21.060Z,112864
2017-05-09T12:22:21.678Z,40608
2017-05-09T12:23:22.309Z,121152
2017-05-09T12:24:22.929Z,125152
2017-05-09T12:25:23.555Z,124704
2017-05-09T12:26:24.186Z,133152
2017-05-09T12:27:24.813Z,34848
2017-05-09T12:28:25.437Z,32896
2017-05-09T12:29:26.058Z,35040
2017-05-09T12:30:26.693Z,37120
2017-05-09T12:31:27.307Z,40640
2017-05-09T12:32:27.922Z,57184
2017-05-09T12:33:28.555Z,122848
2017-05-09T12:34:29.188Z,122560
2017-05-09T12:35:29.822Z,121696
2017-05-09T12:36:30.452Z,118144
2017-05-09T12:37:31.080Z,116288
2017-05-09T12:38:31.707Z,97696
2017-05-09T12:39:32.335Z,104800
2017-05-09T12:40:32.960Z,107520
2017-05-09T12:41:33.589Z,116480
2017-05-09T12:42:34.219Z,117920
2017-05-09T12:43:34.837Z,106912
2017-05-09T12:44:35.500Z,56032
2017-05-09T12:45:36.118Z,38112
2017-05-09T12:46:36.751Z,29344
2017-05-09T12:47:37.377Z,26688
2017-05-09T12:48:38.006Z,29152
2017-05-09T12:49:38.682Z,109248
2017-05-09T12:50:39.308Z,127424
2017-05-09T12:51:39.939Z,124224
2017-05-09T12:52:40.767Z,121728
2017-05-09T12:53:41.397Z,116256
2017-05-09T12:54:42.077Z,116128
2017-05-09T12:55:42.694Z,116864
2017-05-09T12:56:43.333Z,108160
2017-05-09T12:57:43.955Z,115200
2017-05-09T12:58:44.580Z,110976
2017-05-09T12:59:45.211Z,113728
2017-05-09T13:00:45.833Z,107680
2017-05-09T13:01:46.457Z,33888
2017-05-09T13:02:47.076Z,29920
2017-05-09T13:03:47.707Z,30624
2017-05-09T13:04:48.338Z,32096
2017-05-09T13:05:48.975Z,35680
2017-05-09T13:06:49.585Z,93568
2017-05-09T13:07:50.208Z,45760
2017-05-09T13:08:50.836Z,37792
2017-05-09T13:09:51.502Z,39648
2017-05-09T13:10:52.122Z,83488
2017-05-09T13:11:52.751Z,95872
2017-05-09T13:12:53.376Z,79520
2017-05-09T13:13:53.998Z,35136
2017-05-09T13:14:54.652Z,43648
2017-05-09T13:15:55.280Z,117792
2017-05-09T13:16:55.920Z,122016
2017-05-09T13:17:56.538Z,117920
2017-05-09T13:18:57.167Z,117376
2017-05-09T13:19:57.796Z,98784
2017-05-09T13:20:58.421Z,75168
2017-05-09T13:21:59.047Z,30368
2017-05-09T13:22:59.671Z,26912
2017-05-09T13:24:00.296Z,25280
2017-05-09T13:25:00.965Z,24288
2017-05-09T13:26:01.595Z,24384
2017-05-09T13:27:02.225Z,24160
2017-05-09T13:28:02.842Z,24096